createdAt,value
2018-03-27T00:02:18.638Z,28.07
2018-03-27T00:04:46.145Z,29.20
2018-03-27T00:07:13.700Z,27.23
2018-03-27T00:09:41.195Z,35.80
2018-03-27T00:12:08.707Z,27.23
2018-03-27T00:14:36.170Z,28.77
2018-03-27T00:17:03.658Z,23.77
2018-03-27T00:19:31.176Z,29.33
2018-03-27T00:21:58.667Z,28.27
2018-03-27T00:24:26.195Z,28.60
2018-03-27T00:27:00.424Z,28.43
2018-03-27T00:29:39.703Z,28.07
2018-03-27T00:32:19.842Z,33.33
2018-03-27T00:34:59.340Z,28.53
2018-03-27T00:37:38.863Z,27.33
2018-03-27T00:40:18.294Z,27.70
2018-03-27T00:42:51.340Z,31.37
2018-03-27T00:45:18.843Z,29.43
2018-03-27T00:47:46.321Z,31.20
2018-03-27T00:50:13.790Z,30.47
2018-03-27T00:52:41.312Z,29.73
2018-03-27T00:55:08.786Z,29.33
2018-03-27T00:57:36.326Z,28.77
2018-03-27T01:00:03.793Z,29.70
2018-03-27T01:02:31.626Z,28.13
2018-03-27T01:05:05.579Z,30.20
2018-03-27T01:07:33.530Z,30.53
2018-03-27T01:10:01.006Z,32.20
2018-03-27T01:12:28.475Z,30.87
2018-03-27T01:14:55.960Z,29.07
2018-03-27T01:17:24.190Z,30.60
2018-03-27T01:19:51.687Z,33.57
2018-03-27T01:22:19.922Z,31.83
2018-03-27T01:24:47.422Z,34.80
2018-03-27T01:27:15.666Z,36.07
2018-03-27T01:29:43.138Z,34.17
2018-03-27T01:32:11.393Z,31.77
2018-03-27T01:34:38.870Z,34.67
2018-03-27T01:37:06.366Z,34.87
2018-03-27T01:39:33.850Z,43.13
2018-03-27T01:42:01.333Z,34.00
2018-03-27T01:44:28.841Z,34.40
2018-03-27T01:46:56.310Z,32.87
2018-03-27T01:49:23.849Z,36.87
2018-03-27T01:51:51.317Z,34.80
2018-03-27T01:54:18.813Z,36.10
2018-03-27T01:56:46.279Z,36.43
2018-03-27T01:59:14.515Z,32.97
2018-03-27T02:01:42.020Z,32.93
2018-03-27T02:04:10.256Z,37.80
2018-03-27T02:06:37.745Z,32.47
2018-03-27T02:09:06.056Z,31.00
2018-03-27T02:11:39.178Z,34.47
2018-03-27T02:14:12.465Z,32.20
2018-03-27T02:16:45.827Z,32.27
2018-03-27T02:19:18.915Z,33.87
2018-03-27T02:21:45.926Z,37.93
2018-03-27T02:24:14.758Z,33.97
2018-03-27T02:26:42.236Z,39.63
2018-03-27T02:29:09.722Z,38.33
2018-03-27T02:31:37.187Z,45.33
2018-03-27T02:34:05.438Z,41.33
2018-03-27T02:36:33.690Z,42.33
2018-03-27T02:39:01.180Z,42.47
2018-03-27T02:41:29.422Z,39.17
2018-03-27T02:43:56.910Z,39.93
2018-03-27T02:46:25.148Z,37.87
2018-03-27T02:48:52.635Z,37.43
2018-03-27T02:51:20.113Z,37.33
2018-03-27T02:53:48.350Z,37.13
2018-03-27T02:56:15.871Z,38.17
2018-03-27T02:58:43.360Z,34.97
2018-03-27T03:01:10.854Z,36.50
2018-03-27T03:03:39.094Z,37.60
2018-03-27T03:06:06.585Z,40.27
2018-03-27T03:08:34.071Z,38.23
2018-03-27T03:11:01.566Z,38.47
2018-03-27T03:13:29.038Z,42.40
2018-03-27T03:15:56.507Z,36.30
2018-03-27T03:18:24.761Z,38.07
2018-03-27T03:20:52.227Z,32.70
2018-03-27T03:23:20.479Z,39.07
2018-03-27T03:25:47.998Z,36.33
2018-03-27T03:28:15.517Z,42.93
2018-03-27T03:30:42.977Z,43.60
2018-03-27T03:33:11.242Z,34.50
2018-03-27T03:35:39.486Z,39.07
2018-03-27T03:38:06.974Z,41.67
2018-03-27T03:40:34.442Z,43.27
2018-03-27T03:43:02.677Z,40.50
2018-03-27T03:45:30.166Z,42.90
2018-03-27T03:47:58.406Z,43.93
2018-03-27T03:50:25.897Z,44.50
2018-03-27T03:52:54.136Z,39.47
2018-03-27T03:55:21.618Z,42.67
2018-03-27T03:57:49.090Z,41.10
2018-03-27T04:00:17.350Z,41.80
2018-03-27T04:02:45.582Z,42.83
2018-03-27T04:05:13.078Z,42.80
2018-03-27T04:07:40.569Z,46.07
2018-03-27T04:10:08.044Z,44.97
2018-03-27T04:12:35.530Z,47.67
2018-03-27T04:15:03.006Z,42.40
2018-03-27T04:17:31.270Z,41.17
2018-03-27T04:19:58.746Z,39.23
2018-03-27T04:22:27.006Z,39.83
2018-03-27T04:24:54.514Z,39.20
2018-03-27T04:27:22.002Z,41.43
2018-03-27T04:29:49.479Z,38.20
2018-03-27T04:32:16.962Z,41.43
2018-03-27T04:34:44.443Z,37.97
2018-03-27T04:37:11.934Z,36.20
2018-03-27T04:39:40.651Z,33.77
2018-03-27T04:42:08.232Z,37.77
2018-03-27T04:44:35.730Z,38.27
2018-03-27T04:47:03.223Z,31.13
2018-03-27T04:49:31.470Z,37.60
2018-03-27T04:51:58.954Z,31.97
2018-03-27T04:54:26.454Z,32.13
2018-03-27T04:56:53.922Z,28.33
2018-03-27T04:59:21.414Z,27.37
2018-03-27T05:01:49.694Z,27.00
2018-03-27T05:04:17.946Z,25.73
2018-03-27T05:06:46.227Z,24.60
2018-03-27T05:09:14.559Z,26.10
2018-03-27T05:11:42.031Z,24.93
2018-03-27T05:14:09.498Z,21.90
2018-03-27T05:16:36.987Z,22.47
2018-03-27T05:19:05.232Z,23.17
2018-03-27T05:21:32.720Z,25.47
2018-03-27T05:24:00.195Z,21.77
2018-03-27T05:26:27.742Z,24.77
2018-03-27T05:28:55.170Z,23.80
2018-03-27T05:31:23.425Z,19.83
2018-03-27T05:33:50.912Z,19.93
2018-03-27T05:36:19.162Z,20.57
2018-03-27T05:38:46.637Z,17.23
2018-03-27T05:41:14.870Z,17.63
2018-03-27T05:43:42.367Z,18.67
2018-03-27T05:46:10.598Z,19.40
2018-03-27T05:48:38.101Z,19.70
2018-03-27T05:51:06.342Z,15.07
2018-03-27T05:53:33.831Z,15.43
2018-03-27T05:56:02.136Z,15.50
2018-03-27T05:58:29.573Z,16.67
2018-03-27T06:00:57.037Z,14.07
2018-03-27T06:03:24.535Z,14.93
2018-03-27T06:05:51.998Z,11.90
2018-03-27T06:08:19.497Z,12.60
2018-03-27T06:10:47.746Z,11.63
2018-03-27T06:13:15.209Z,15.87
2018-03-27T06:15:42.690Z,11.50
2018-03-27T06:18:10.159Z,13.07
2018-03-27T06:20:37.640Z,10.83
2018-03-27T06:23:05.102Z,11.73
2018-03-27T06:25:32.588Z,12.87
2018-03-27T06:28:00.822Z,13.07
2018-03-27T06:30:28.330Z,11.47
2018-03-27T06:32:56.396Z,10.60
2018-03-27T06:35:23.900Z,11.20
2018-03-27T06:37:52.150Z,11.47
2018-03-27T06:40:19.607Z,9.90
2018-03-27T06:42:47.850Z,8.30
2018-03-27T06:45:16.123Z,8.23
2018-03-27T06:47:43.654Z,11.17
2018-03-27T06:50:11.145Z,9.93
2018-03-27T06:52:38.627Z,11.53
2018-03-27T06:55:06.859Z,9.53
2018-03-27T06:57:34.326Z,11.67
2018-03-27T07:00:01.815Z,12.20
2018-03-27T07:02:29.282Z,9.63
2018-03-27T07:04:57.524Z,10.53
2018-03-27T07:07:25.776Z,9.93
2018-03-27T07:09:53.260Z,11.07
2018-03-27T07:12:20.726Z,11.87
2018-03-27T07:14:48.975Z,12.23
2018-03-27T07:17:16.491Z,10.13
2018-03-27T07:19:44.314Z,9.17
2018-03-27T07:22:11.771Z,9.83
2018-03-27T07:24:39.234Z,10.77
2018-03-27T07:27:07.482Z,15.03
2018-03-27T07:29:34.949Z,9.37
2018-03-27T07:32:03.218Z,11.07
2018-03-27T07:34:32.194Z,8.77
2018-03-27T07:36:59.674Z,10.20
2018-03-27T07:39:27.135Z,7.60
2018-03-27T07:41:54.631Z,7.37
2018-03-27T07:44:22.090Z,7.70
2018-03-27T07:46:49.553Z,10.03
2018-03-27T07:49:17.037Z,8.80
2018-03-27T07:51:44.498Z,8.00
2018-03-27T07:54:11.970Z,8.37
2018-03-27T07:56:39.459Z,7.50
2018-03-27T07:59:06.938Z,5.60
2018-03-27T08:01:34.408Z,8.97
2018-03-27T08:04:01.880Z,8.80
2018-03-27T08:06:29.345Z,5.90
2018-03-27T08:08:56.827Z,8.37
2018-03-27T08:11:24.303Z,6.87
2018-03-27T08:13:51.773Z,5.67
2018-03-27T08:16:19.254Z,6.00
2018-03-27T08:18:46.715Z,9.40
2018-03-27T08:21:14.191Z,5.53
2018-03-27T08:23:42.414Z,7.33
2018-03-27T08:26:10.024Z,6.67
2018-03-27T08:28:38.258Z,6.27
2018-03-27T08:31:06.031Z,5.30
2018-03-27T08:33:33.494Z,5.63
2018-03-27T08:36:00.951Z,5.17
2018-03-27T08:38:28.430Z,6.30
2018-03-27T08:40:56.674Z,6.40
2018-03-27T08:43:24.174Z,5.40
2018-03-27T08:45:52.384Z,3.50
2018-03-27T08:48:19.858Z,5.07
2018-03-27T08:50:47.319Z,5.10
2018-03-27T08:53:15.562Z,6.10
2018-03-27T08:55:43.030Z,5.53
2018-03-27T08:58:10.490Z,5.50
2018-03-27T09:00:38.023Z,6.40
2018-03-27T09:03:05.464Z,6.07
2018-03-27T09:05:32.942Z,6.20
2018-03-27T09:08:00.410Z,9.37
2018-03-27T09:10:27.890Z,7.33
2018-03-27T09:12:56.121Z,6.83
2018-03-27T09:15:23.626Z,9.93
2018-03-27T09:17:51.858Z,8.20
2018-03-27T09:20:19.343Z,6.73
2018-03-27T09:22:47.582Z,9.70
2018-03-27T09:25:15.043Z,9.93
2018-03-27T09:27:42.534Z,10.47
2018-03-27T09:30:10.770Z,8.60
2018-03-27T09:32:38.304Z,10.80
2018-03-27T09:35:05.766Z,10.93
2018-03-27T09:37:33.259Z,10.93
2018-03-27T09:40:00.775Z,13.50
2018-03-27T09:42:28.258Z,11.97
2018-03-27T09:44:55.738Z,14.50
2018-03-27T09:47:23.226Z,15.33
2018-03-27T09:49:50.699Z,12.73
2018-03-27T09:52:18.554Z,12.10
2018-03-27T09:54:46.032Z,10.70
2018-03-27T09:57:13.497Z,12.50
2018-03-27T09:59:40.981Z,14.47
2018-03-27T10:02:08.449Z,14.37
2018-03-27T10:04:36.716Z,14.43
2018-03-27T10:07:04.950Z,11.37
2018-03-27T10:09:32.453Z,11.90
2018-03-27T10:12:00.683Z,12.53
2018-03-27T10:14:28.150Z,15.37
2018-03-27T10:16:55.634Z,12.60
2018-03-27T10:19:23.866Z,14.57
2018-03-27T10:21:51.404Z,14.73
2018-03-27T10:24:18.878Z,12.60
2018-03-27T10:26:46.358Z,14.83
2018-03-27T10:29:13.843Z,15.13
2018-03-27T10:31:42.074Z,17.50
2018-03-27T10:34:09.570Z,15.10
2018-03-27T10:36:37.815Z,15.17
2018-03-27T10:39:05.329Z,13.97
2018-03-27T10:41:32.822Z,22.33
2018-03-27T10:44:00.288Z,17.93
2018-03-27T10:46:27.790Z,23.10
2018-03-27T10:48:55.263Z,25.20
2018-03-27T10:51:22.748Z,21.33
2018-03-27T10:53:50.257Z,19.77
2018-03-27T10:56:17.734Z,20.37
2018-03-27T10:58:45.235Z,22.17
2018-03-27T11:01:12.710Z,21.33
2018-03-27T11:03:41.017Z,18.27
2018-03-27T11:06:08.454Z,19.93
2018-03-27T11:08:35.930Z,19.10
2018-03-27T11:11:04.194Z,22.40
2018-03-27T11:13:31.706Z,20.60
2018-03-27T11:15:59.172Z,21.23
2018-03-27T11:18:26.678Z,20.93
2018-03-27T11:20:54.150Z,20.83
2018-03-27T11:23:21.690Z,21.60
2018-03-27T11:25:49.138Z,20.57
2018-03-27T11:28:16.634Z,23.47
2018-03-27T11:30:44.130Z,22.33
2018-03-27T11:33:11.631Z,20.73
2018-03-27T11:35:39.143Z,18.17
2018-03-27T11:38:07.403Z,18.93
2018-03-27T11:40:35.656Z,20.07
2018-03-27T11:43:03.150Z,19.27
2018-03-27T11:45:30.619Z,19.57
2018-03-27T11:47:58.093Z,18.90
2018-03-27T11:50:25.582Z,21.30
2018-03-27T11:52:53.054Z,22.90
2018-03-27T11:55:20.558Z,20.33
2018-03-27T11:57:48.040Z,26.00
2018-03-27T12:00:15.545Z,21.30
2018-03-27T12:02:43.782Z,20.50
2018-03-27T12:05:12.046Z,21.33
2018-03-27T12:07:39.529Z,19.30
2018-03-27T12:10:07.796Z,20.17
2018-03-27T12:12:35.272Z,20.00
2018-03-27T12:15:03.530Z,20.10
2018-03-27T12:17:31.006Z,22.27
2018-03-27T12:19:59.260Z,16.43
2018-03-27T12:22:26.748Z,18.93
2018-03-27T12:24:54.330Z,19.43
2018-03-27T12:27:21.826Z,18.13
2018-03-27T12:29:49.346Z,22.33
2018-03-27T12:32:16.835Z,21.97
2018-03-27T12:34:44.312Z,20.37
2018-03-27T12:37:12.573Z,19.03
2018-03-27T12:39:40.050Z,22.00
2018-03-27T12:42:08.307Z,21.30
2018-03-27T12:44:37.287Z,21.90
2018-03-27T12:47:04.773Z,25.90
2018-03-27T12:49:33.017Z,23.20
2018-03-27T12:52:00.530Z,26.60
2018-03-27T12:54:28.059Z,24.70
2018-03-27T12:56:55.668Z,24.10
2018-03-27T12:59:23.190Z,29.43
2018-03-27T13:01:50.681Z,24.47
2018-03-27T13:04:18.180Z,19.03
2018-03-27T13:06:46.469Z,18.10
2018-03-27T13:09:13.966Z,12.30
2018-03-27T13:11:41.438Z,14.63
2018-03-27T13:14:08.924Z,14.10
2018-03-27T13:16:37.162Z,11.73
2018-03-27T13:19:04.653Z,15.97
2018-03-27T13:21:32.894Z,17.73
2018-03-27T13:24:00.393Z,16.23
2018-03-27T13:26:27.870Z,16.23
2018-03-27T13:28:55.381Z,17.13
2018-03-27T13:31:22.875Z,18.00
2018-03-27T13:33:50.363Z,16.40
2018-03-27T13:36:17.851Z,16.50
2018-03-27T13:38:46.852Z,18.07
2018-03-27T13:41:14.321Z,17.20
2018-03-27T13:43:42.595Z,17.67
2018-03-27T13:46:10.059Z,18.03
2018-03-27T13:48:38.315Z,17.83
2018-03-27T13:51:06.620Z,17.07
2018-03-27T13:53:34.097Z,19.97
2018-03-27T13:56:01.622Z,14.83
2018-03-27T13:58:29.093Z,17.30
2018-03-27T14:00:56.614Z,16.30
2018-03-27T14:03:24.853Z,21.27
2018-03-27T14:05:52.363Z,11.10
2018-03-27T14:08:20.598Z,10.93
2018-03-27T14:10:48.082Z,9.50
2018-03-27T14:13:16.330Z,9.73
2018-03-27T14:15:43.806Z,9.40
2018-03-27T14:18:11.290Z,8.53
2018-03-27T14:20:38.780Z,7.57
2018-03-27T14:23:06.238Z,7.93
2018-03-27T14:25:33.714Z,8.57
2018-03-27T14:28:01.180Z,9.37
2018-03-27T14:30:29.484Z,9.67
2018-03-27T14:32:56.963Z,8.80
2018-03-27T14:35:24.443Z,8.47
2018-03-27T14:37:51.971Z,10.10
2018-03-27T14:40:21.093Z,9.63
2018-03-27T14:42:48.596Z,8.73
2018-03-27T14:45:16.074Z,6.90
2018-03-27T14:47:43.570Z,5.63
2018-03-27T14:50:11.027Z,6.47
2018-03-27T14:52:38.515Z,7.23
2018-03-27T14:55:06.766Z,9.57
2018-03-27T14:57:34.235Z,6.77
2018-03-27T15:00:01.744Z,4.90
2018-03-27T15:02:29.253Z,7.03
2018-03-27T15:04:57.575Z,8.07
2018-03-27T15:07:25.039Z,5.63
2018-03-27T15:09:52.534Z,7.50
2018-03-27T15:12:20.803Z,7.77
2018-03-27T15:14:48.278Z,7.57
2018-03-27T15:17:16.541Z,9.30
2018-03-27T15:19:44.793Z,6.40
2018-03-27T15:22:12.265Z,13.07
2018-03-27T15:24:39.758Z,11.33
2018-03-27T15:27:07.218Z,14.27
2018-03-27T15:29:34.715Z,12.87
2018-03-27T15:32:02.210Z,13.27
2018-03-27T15:34:30.438Z,7.40
2018-03-27T15:36:57.930Z,17.70
2018-03-27T15:39:25.421Z,10.60
2018-03-27T15:41:53.743Z,15.87
2018-03-27T15:44:21.206Z,14.77
2018-03-27T15:46:48.707Z,10.00
2018-03-27T15:49:16.966Z,9.70
2018-03-27T15:51:45.218Z,8.53
2018-03-27T15:54:12.728Z,8.77
2018-03-27T15:56:40.190Z,10.33
2018-03-27T15:59:07.664Z,11.83
2018-03-27T16:01:35.150Z,8.63
2018-03-27T16:04:03.385Z,9.47
2018-03-27T16:06:30.886Z,11.23
2018-03-27T16:08:58.364Z,9.80
2018-03-27T16:11:27.651Z,9.93
2018-03-27T16:13:55.185Z,11.77
2018-03-27T16:16:22.925Z,10.33
2018-03-27T16:18:50.462Z,7.83
2018-03-27T16:21:18.073Z,11.43
2018-03-27T16:23:45.550Z,10.90
2018-03-27T16:26:13.811Z,10.50
2018-03-27T16:28:42.223Z,9.87
2018-03-27T16:31:10.219Z,8.27
2018-03-27T16:33:37.775Z,6.40
2018-03-27T16:36:05.255Z,6.90
2018-03-27T16:38:34.038Z,6.73
2018-03-27T16:41:02.589Z,4.27
2018-03-27T16:43:31.195Z,8.13
2018-03-27T16:45:58.863Z,7.27
2018-03-27T16:48:26.349Z,7.13
2018-03-27T16:50:54.611Z,4.80
2018-03-27T16:53:22.183Z,6.87
2018-03-27T16:55:49.688Z,4.40
2018-03-27T16:58:17.182Z,5.13
2018-03-27T17:00:44.895Z,8.47
2018-03-27T17:03:12.694Z,7.43
2018-03-27T17:05:40.376Z,8.10
2018-03-27T17:08:08.160Z,4.60
2018-03-27T17:10:35.638Z,11.67
2018-03-27T17:13:03.125Z,7.17
2018-03-27T17:15:32.437Z,4.13
2018-03-27T17:18:00.167Z,5.53
2018-03-27T17:20:27.647Z,6.17
2018-03-27T17:22:55.121Z,4.40
2018-03-27T17:25:22.582Z,5.97
2018-03-27T17:27:50.066Z,4.30
2018-03-27T17:30:17.548Z,7.90
2018-03-27T17:32:45.011Z,6.23
2018-03-27T17:35:12.493Z,4.30
2018-03-27T17:37:39.956Z,3.57
2018-03-27T17:40:07.479Z,4.27
2018-03-27T17:42:34.982Z,2.60
2018-03-27T17:45:02.559Z,4.57
2018-03-27T17:47:31.403Z,4.80
2018-03-27T17:49:59.279Z,2.37
2018-03-27T17:52:27.076Z,3.40
2018-03-27T17:54:55.243Z,2.30
2018-03-27T17:57:23.255Z,2.07
2018-03-27T17:59:51.598Z,2.03
2018-03-27T18:02:19.473Z,2.30
2018-03-27T18:04:48.093Z,2.63
2018-03-27T18:07:16.858Z,1.70
2018-03-27T18:09:44.845Z,3.10
2018-03-27T18:12:12.391Z,1.63
2018-03-27T18:14:40.098Z,2.63
2018-03-27T18:17:08.405Z,6.00
2018-03-27T18:19:36.670Z,6.20
2018-03-27T18:22:04.846Z,2.53
2018-03-27T18:24:32.670Z,2.73
2018-03-27T18:27:01.079Z,3.37
2018-03-27T18:29:29.565Z,2.13
2018-03-27T18:32:01.480Z,3.20
2018-03-27T18:34:29.784Z,1.60
2018-03-27T18:36:58.757Z,4.13
2018-03-27T18:39:26.952Z,3.30
2018-03-27T18:41:54.521Z,4.70
2018-03-27T18:44:21.996Z,5.03
2018-03-27T18:46:49.541Z,3.73
2018-03-27T18:49:17.020Z,3.87
2018-03-27T18:51:44.519Z,2.90
2018-03-27T18:54:12.190Z,4.57
2018-03-27T18:56:39.869Z,5.43
2018-03-27T18:59:07.688Z,2.47
2018-03-27T19:01:35.174Z,4.23
2018-03-27T19:04:03.351Z,4.57
2018-03-27T19:06:31.943Z,3.53
2018-03-27T19:08:59.450Z,4.20
2018-03-27T19:11:27.675Z,3.63
2018-03-27T19:13:55.158Z,2.90
2018-03-27T19:16:22.629Z,4.63
2018-03-27T19:18:50.204Z,3.57
2018-03-27T19:21:17.684Z,1.63
2018-03-27T19:23:45.158Z,3.27
2018-03-27T19:26:13.388Z,3.70
2018-03-27T19:28:40.866Z,1.67
2018-03-27T19:31:08.326Z,2.13
2018-03-27T19:33:35.818Z,2.30
2018-03-27T19:36:04.050Z,2.27
2018-03-27T19:38:31.534Z,5.20
2018-03-27T19:40:58.995Z,2.50
2018-03-27T19:43:26.458Z,1.63
2018-03-27T19:45:53.975Z,1.97
2018-03-27T19:48:21.529Z,6.40
2018-03-27T19:50:49.014Z,2.77
2018-03-27T19:53:16.544Z,2.47
2018-03-27T19:55:44.018Z,4.00
2018-03-27T19:58:11.573Z,2.70
2018-03-27T20:00:39.061Z,3.53
2018-03-27T20:03:06.587Z,1.83
2018-03-27T20:05:34.061Z,2.87
2018-03-27T20:08:01.600Z,2.17
2018-03-27T20:10:29.078Z,1.80
2018-03-27T20:12:56.547Z,2.10
2018-03-27T20:15:24.044Z,4.50
2018-03-27T20:17:52.269Z,3.23
2018-03-27T20:20:19.734Z,2.47
2018-03-27T20:22:47.251Z,3.00
2018-03-27T20:25:14.710Z,3.30
2018-03-27T20:27:42.188Z,2.73
2018-03-27T20:30:09.646Z,2.90
2018-03-27T20:32:37.154Z,4.00
2018-03-27T20:35:05.381Z,3.80
2018-03-27T20:37:32.864Z,3.53
2018-03-27T20:40:00.322Z,5.07
2018-03-27T20:42:27.809Z,4.57
2018-03-27T20:44:55.269Z,4.43
2018-03-27T20:47:22.746Z,5.30
2018-03-27T20:49:50.219Z,5.50
2018-03-27T20:52:17.698Z,5.87
2018-03-27T20:54:45.172Z,6.33
2018-03-27T20:57:12.646Z,6.80
2018-03-27T20:59:41.937Z,7.27
2018-03-27T21:02:09.399Z,7.33
2018-03-27T21:04:36.881Z,8.80
2018-03-27T21:07:04.353Z,9.07
2018-03-27T21:09:31.833Z,9.20
2018-03-27T21:11:59.291Z,8.23
2018-03-27T21:14:26.769Z,9.67
2018-03-27T21:16:54.259Z,10.67
2018-03-27T21:19:21.758Z,10.77
2018-03-27T21:21:49.221Z,11.23
2018-03-27T21:24:16.706Z,11.63
2018-03-27T21:26:44.178Z,12.40
2018-03-27T21:29:11.658Z,11.40
2018-03-27T21:31:39.898Z,13.10
2018-03-27T21:34:07.416Z,11.97
2018-03-27T21:36:34.883Z,12.90
2018-03-27T21:39:02.375Z,13.53
2018-03-27T21:41:29.840Z,13.13
2018-03-27T21:43:57.306Z,14.60
2018-03-27T21:46:24.787Z,13.63
2018-03-27T21:48:52.281Z,15.40
2018-03-27T21:51:19.772Z,14.47
2018-03-27T21:53:47.257Z,15.80
2018-03-27T21:56:14.754Z,18.20
2018-03-27T21:58:42.258Z,17.50
2018-03-27T22:01:10.499Z,14.80
2018-03-27T22:03:40.577Z,16.77
2018-03-27T22:06:08.063Z,17.63
2018-03-27T22:08:35.532Z,20.23
2018-03-27T22:11:03.035Z,18.43
2018-03-27T22:13:30.510Z,19.60
2018-03-27T22:15:58.030Z,21.30
2018-03-27T22:18:26.270Z,22.07
2018-03-27T22:20:53.822Z,19.77
2018-03-27T22:23:21.281Z,17.17
2018-03-27T22:25:48.762Z,19.47
2018-03-27T22:28:17.026Z,19.83
2018-03-27T22:30:44.513Z,18.93
2018-03-27T22:33:12.011Z,18.43
2018-03-27T22:35:39.478Z,18.43
2018-03-27T22:38:06.997Z,21.87
2018-03-27T22:40:34.466Z,23.90
2018-03-27T22:43:01.948Z,23.57
2018-03-27T22:45:29.419Z,26.33
2018-03-27T22:47:56.917Z,29.07
2018-03-27T22:50:24.404Z,30.70
2018-03-27T22:52:51.890Z,35.40
2018-03-27T22:55:19.355Z,35.67
2018-03-27T22:57:47.614Z,36.77
2018-03-27T23:00:15.083Z,40.77
2018-03-27T23:05:36.722Z,36.50
2018-03-27T23:08:04.954Z,38.53
2018-03-27T23:10:32.418Z,38.07
2018-03-27T23:12:59.907Z,38.13
2018-03-27T23:15:28.141Z,39.73
2018-03-27T23:17:55.638Z,41.20
2018-03-27T23:20:23.874Z,44.93
2018-03-27T23:22:51.358Z,45.03
2018-03-27T23:25:18.826Z,42.70
2018-03-27T23:27:47.103Z,43.27
2018-03-27T23:30:14.573Z,47.83
2018-03-27T23:32:42.063Z,48.73
2018-03-27T23:35:09.552Z,47.87
2018-03-27T23:37:37.042Z,49.93
2018-03-27T23:40:04.522Z,57.97
2018-03-27T23:42:31.994Z,55.40
2018-03-27T23:44:59.491Z,54.87
2018-03-27T23:47:27.727Z,60.03
2018-03-27T23:49:55.226Z,57.30
2018-03-27T23:52:23.471Z,60.60
2018-03-27T23:54:50.954Z,61.83
2018-03-27T23:57:19.202Z,68.33
2018-03-27T23:59:46.695Z,57.03
